createdAt,value
2023-04-26T00:00:18.604Z,65.14
2023-04-26T00:02:46.340Z,64.42
2023-04-26T00:05:15.160Z,64.80
2023-04-26T00:07:42.846Z,64.98
2023-04-26T00:10:10.824Z,65.03
2023-04-26T00:12:38.627Z,64.79
2023-04-26T00:15:06.247Z,65.14
2023-04-26T00:17:33.874Z,65.35
2023-04-26T00:20:01.718Z,64.83
2023-04-26T00:22:29.265Z,65.33
2023-04-26T00:24:57.327Z,64.60
2023-04-26T00:27:24.963Z,64.95
2023-04-26T00:29:52.869Z,64.83
2023-04-26T00:32:20.779Z,65.26
2023-04-26T00:34:48.414Z,65.40
2023-04-26T00:37:16.744Z,64.73
2023-04-26T00:39:44.295Z,64.81
2023-04-26T00:42:12.314Z,65.28
2023-04-26T00:44:40.619Z,65.39
2023-04-26T00:47:08.168Z,64.94
2023-04-26T00:49:36.148Z,65.48
2023-04-26T00:52:03.814Z,65.57
2023-04-26T00:54:32.097Z,65.61
2023-04-26T00:57:00.777Z,64.91
2023-04-26T00:59:28.351Z,65.35
2023-04-26T01:01:56.369Z,64.90
2023-04-26T01:04:26.413Z,65.02
2023-04-26T01:06:54.317Z,65.50
2023-04-26T01:09:21.886Z,65.59
2023-04-26T01:11:49.470Z,65.40
2023-04-26T01:14:17.322Z,65.08
2023-04-26T01:16:46.988Z,65.35
2023-04-26T01:19:15.505Z,65.34
2023-04-26T01:21:43.099Z,65.48
2023-04-26T01:24:10.713Z,65.37
2023-04-26T01:26:44.124Z,65.52
2023-04-26T01:29:11.716Z,65.27
2023-04-26T01:31:39.692Z,64.90
2023-04-26T01:34:07.319Z,65.05
2023-04-26T01:36:34.871Z,65.24
2023-04-26T01:39:03.899Z,65.71
2023-04-26T01:41:31.594Z,66.04
2023-04-26T01:43:59.538Z,66.01
2023-04-26T01:46:27.221Z,65.77
2023-04-26T01:48:55.026Z,65.81
2023-04-26T01:51:22.840Z,65.87
2023-04-26T01:53:50.483Z,65.69
2023-04-26T01:56:18.757Z,65.99
2023-04-26T01:58:46.337Z,65.70
2023-04-26T02:01:14.229Z,65.87
2023-04-26T02:03:42.043Z,65.60
2023-04-26T02:06:09.852Z,65.76
2023-04-26T02:08:37.703Z,65.60
2023-04-26T02:11:05.360Z,65.87
2023-04-26T02:13:32.940Z,66.22
2023-04-26T02:16:00.688Z,66.30
2023-04-26T02:18:29.902Z,65.79
2023-04-26T02:20:57.910Z,66.35
2023-04-26T02:23:25.588Z,66.28
2023-04-26T02:25:53.172Z,65.85
2023-04-26T02:28:21.102Z,66.25
2023-04-26T02:30:48.668Z,66.74
2023-04-26T02:33:16.653Z,66.83
2023-04-26T02:35:44.216Z,66.65
2023-04-26T02:38:11.821Z,66.97
2023-04-26T02:40:39.454Z,67.08
2023-04-26T02:43:07.275Z,67.30
2023-04-26T02:45:35.508Z,67.52
2023-04-26T02:48:03.418Z,67.14
2023-04-26T02:50:31.107Z,67.38
2023-04-26T02:52:59.014Z,67.71
2023-04-26T02:55:26.630Z,68.36
2023-04-26T02:57:54.465Z,68.02
2023-04-26T03:00:22.335Z,68.50
2023-04-26T03:02:50.044Z,68.37
2023-04-26T03:05:18.022Z,68.41
2023-04-26T03:07:45.891Z,68.73
2023-04-26T03:10:13.842Z,69.35
2023-04-26T03:12:41.705Z,68.82
2023-04-26T03:15:09.680Z,69.21
2023-04-26T03:17:37.466Z,69.29
2023-04-26T03:20:06.251Z,69.07
2023-04-26T03:22:33.875Z,69.02
2023-04-26T03:25:01.801Z,68.90
2023-04-26T03:27:29.349Z,69.24
2023-04-26T03:29:57.727Z,70.00
2023-04-26T03:32:25.459Z,69.44
2023-04-26T03:34:53.130Z,69.01
2023-04-26T03:37:20.669Z,69.24
2023-04-26T03:39:48.249Z,69.41
2023-04-26T03:42:15.855Z,69.22
2023-04-26T03:44:43.387Z,69.02
2023-04-26T03:47:11.388Z,69.46
2023-04-26T03:49:39.021Z,69.73
2023-04-26T03:52:06.584Z,69.46
2023-04-26T03:54:34.311Z,69.81
2023-04-26T03:57:01.889Z,69.58
2023-04-26T03:59:29.818Z,69.63
2023-04-26T04:01:57.473Z,69.10
2023-04-26T04:04:25.279Z,69.13
2023-04-26T04:06:56.135Z,69.57
2023-04-26T04:09:23.950Z,68.94
2023-04-26T04:11:52.206Z,68.99
2023-04-26T04:14:20.071Z,69.00
2023-04-26T04:16:47.799Z,69.03
2023-04-26T04:19:18.879Z,69.15
2023-04-26T04:21:46.484Z,69.46
2023-04-26T04:24:14.494Z,69.46
2023-04-26T04:26:50.685Z,69.74
2023-04-26T04:29:24.272Z,69.41
2023-04-26T04:31:58.277Z,69.51
2023-04-26T04:37:40.891Z,69.75
2023-04-26T04:43:31.050Z,69.26
2023-04-26T04:46:16.779Z,68.80
2023-04-26T04:51:32.993Z,69.38
2023-04-26T04:57:37.295Z,69.54
2023-04-26T05:03:38.037Z,68.88
2023-04-26T05:06:26.277Z,69.34
2023-04-26T05:12:16.975Z,69.00
2023-04-26T05:17:47.208Z,68.03
2023-04-26T05:23:45.325Z,67.42
2023-04-26T05:26:47.545Z,66.99
2023-04-26T05:29:35.437Z,66.70
2023-04-26T05:32:03.132Z,66.78
2023-04-26T05:34:58.756Z,66.30
2023-04-26T05:55:40.097Z,65.20
2023-04-26T06:04:40.978Z,64.20
2023-04-26T06:10:07.079Z,64.05
2023-04-26T06:18:55.640Z,63.90
2023-04-26T06:31:05.311Z,63.68
2023-04-26T06:37:05.582Z,63.22
2023-04-26T06:39:54.747Z,63.01
2023-04-26T06:48:21.296Z,62.77
2023-04-26T06:50:48.867Z,62.73
2023-04-26T06:53:50.109Z,62.62
2023-04-26T06:56:24.859Z,62.85
2023-04-26T07:02:26.316Z,62.01
2023-04-26T07:04:54.468Z,61.82
2023-04-26T07:07:37.474Z,61.19
2023-04-26T07:10:28.711Z,61.43
2023-04-26T07:16:31.334Z,61.25
2023-04-26T07:22:32.592Z,61.26
2023-04-26T07:25:00.314Z,60.78
2023-04-26T07:30:37.922Z,60.49
2023-04-26T07:36:39.952Z,59.87
2023-04-26T07:45:47.053Z,59.92
2023-04-26T08:00:50.161Z,59.90
2023-04-26T08:03:34.917Z,60.14
2023-04-26T08:06:03.257Z,60.24
2023-04-26T08:08:32.480Z,60.50
2023-04-26T08:11:00.854Z,59.66
2023-04-26T08:13:29.634Z,59.37
2023-04-26T08:15:57.845Z,59.04
2023-04-26T08:18:25.932Z,58.67
2023-04-26T08:20:55.535Z,57.80
2023-04-26T08:23:24.260Z,58.00
2023-04-26T08:25:52.313Z,57.52
2023-04-26T08:28:21.550Z,57.83
2023-04-26T08:30:49.284Z,57.88
2023-04-26T08:33:17.709Z,58.31
2023-04-26T08:35:45.628Z,58.83
2023-04-26T08:38:13.319Z,58.63
2023-04-26T08:40:41.532Z,58.70
2023-04-26T08:43:09.345Z,58.78
2023-04-26T08:45:37.157Z,57.91
2023-04-26T08:48:09.947Z,57.99
2023-04-26T08:50:37.897Z,57.04
2023-04-26T08:53:06.072Z,56.88
2023-04-26T08:55:33.965Z,56.74
2023-04-26T08:58:01.904Z,56.36
2023-04-26T09:00:30.223Z,56.18
2023-04-26T09:02:58.346Z,56.45
2023-04-26T09:05:27.465Z,56.70
2023-04-26T09:07:55.220Z,57.05
2023-04-26T09:10:23.591Z,57.60
2023-04-26T09:12:51.534Z,57.53
2023-04-26T09:15:19.265Z,57.35
2023-04-26T09:17:47.881Z,57.01
2023-04-26T09:20:15.866Z,56.40
2023-04-26T09:22:43.662Z,55.96
2023-04-26T09:25:12.353Z,55.17
2023-04-26T09:27:40.181Z,55.72
2023-04-26T09:30:08.311Z,55.64
2023-04-26T09:32:36.556Z,56.13
2023-04-26T09:35:04.938Z,56.61
2023-04-26T09:37:34.373Z,56.84
2023-04-26T09:40:02.280Z,56.79
2023-04-26T09:42:30.024Z,57.21
2023-04-26T09:44:57.901Z,56.54
2023-04-26T09:47:26.196Z,55.92
2023-04-26T09:49:54.418Z,54.26
2023-04-26T09:52:22.230Z,54.10
2023-04-26T09:54:52.194Z,54.10
2023-04-26T09:57:20.290Z,54.45
2023-04-26T09:59:48.254Z,55.21
2023-04-26T10:02:17.424Z,55.84
2023-04-26T10:04:45.703Z,56.00
2023-04-26T10:07:13.536Z,56.61
2023-04-26T10:09:41.885Z,56.68
2023-04-26T10:12:09.900Z,56.82
2023-04-26T10:14:38.441Z,56.94
2023-04-26T10:17:07.842Z,56.84
2023-04-26T10:19:36.147Z,56.62
2023-04-26T10:22:04.132Z,56.30
2023-04-26T10:24:32.043Z,56.58
2023-04-26T10:27:01.851Z,56.62
2023-04-26T10:29:29.778Z,56.67
2023-04-26T10:31:57.778Z,56.25
2023-04-26T10:34:25.744Z,55.80
2023-04-26T10:36:53.558Z,55.54
2023-04-26T10:39:22.875Z,55.10
2023-04-26T10:41:50.773Z,54.94
2023-04-26T10:44:18.836Z,54.69
2023-04-26T10:46:47.105Z,54.88
2023-04-26T10:49:15.216Z,55.02
2023-04-26T10:51:43.361Z,55.12
2023-04-26T10:54:11.303Z,55.11
2023-04-26T10:56:39.402Z,54.88
2023-04-26T10:59:22.593Z,54.49
2023-04-26T11:01:55.607Z,54.42
2023-04-26T11:04:23.671Z,53.51
2023-04-26T11:06:51.989Z,50.95
2023-04-26T11:09:20.152Z,47.79
2023-04-26T11:11:48.085Z,47.27
2023-04-26T11:14:16.753Z,47.33
2023-04-26T11:16:44.665Z,47.61
2023-04-26T11:19:12.848Z,48.98
2023-04-26T11:21:40.986Z,49.56
2023-04-26T11:24:08.957Z,49.99
2023-04-26T11:26:37.705Z,50.10
2023-04-26T11:29:05.504Z,51.52
2023-04-26T11:31:33.806Z,51.68
2023-04-26T11:34:01.626Z,52.31
2023-04-26T11:36:30.201Z,52.48
2023-04-26T11:38:58.816Z,52.93
2023-04-26T11:41:27.593Z,52.92
2023-04-26T11:43:55.633Z,52.14
2023-04-26T11:46:24.636Z,49.25
2023-04-26T11:48:52.967Z,47.51
2023-04-26T11:51:21.479Z,47.88
2023-04-26T11:53:49.754Z,48.88
2023-04-26T11:56:18.239Z,49.23
2023-04-26T11:58:45.970Z,50.05
2023-04-26T12:01:13.812Z,49.94
2023-04-26T12:03:42.419Z,50.85
2023-04-26T12:06:10.681Z,50.94
2023-04-26T12:08:38.768Z,51.72
2023-04-26T12:11:06.586Z,52.08
2023-04-26T12:13:34.385Z,52.35
2023-04-26T12:16:05.345Z,52.81
2023-04-26T12:18:35.352Z,52.61
2023-04-26T12:21:04.087Z,53.22
2023-04-26T12:23:32.157Z,52.73
2023-04-26T12:26:02.339Z,53.09
2023-04-26T12:28:30.711Z,53.08
2023-04-26T12:30:58.565Z,53.55
2023-04-26T12:33:26.875Z,53.31
2023-04-26T12:35:54.913Z,52.40
2023-04-26T12:38:22.840Z,52.06
2023-04-26T12:40:51.383Z,52.14
2023-04-26T12:43:20.287Z,52.04
2023-04-26T12:45:48.373Z,51.63
2023-04-26T12:48:17.030Z,50.17
2023-04-26T12:50:46.182Z,47.84
2023-04-26T12:53:14.559Z,46.73
2023-04-26T12:55:42.254Z,46.04
2023-04-26T12:58:10.478Z,45.16
2023-04-26T13:00:38.566Z,44.57
2023-04-26T13:03:06.941Z,44.52
2023-04-26T13:05:35.434Z,43.72
2023-04-26T13:08:03.248Z,44.11
2023-04-26T13:10:33.167Z,44.90
2023-04-26T13:13:01.797Z,45.97
2023-04-26T13:15:30.219Z,46.23
2023-04-26T13:17:58.443Z,46.84
2023-04-26T13:20:27.277Z,46.40
2023-04-26T13:22:57.082Z,46.19
2023-04-26T13:25:25.071Z,46.36
2023-04-26T13:27:55.063Z,46.16
2023-04-26T13:30:23.554Z,46.21
2023-04-26T13:32:51.757Z,46.77
2023-04-26T13:35:20.136Z,47.18
2023-04-26T13:37:47.946Z,48.17
2023-04-26T13:40:15.789Z,48.07
2023-04-26T13:42:44.227Z,48.28
2023-04-26T13:45:14.382Z,48.74
2023-04-26T13:47:42.270Z,49.02
2023-04-26T13:50:10.527Z,48.87
2023-04-26T13:52:38.500Z,49.09
2023-04-26T13:55:07.241Z,49.62
2023-04-26T13:57:35.215Z,49.39
2023-04-26T14:00:04.537Z,49.35
2023-04-26T14:02:32.533Z,50.02
2023-04-26T14:05:00.969Z,49.99
2023-04-26T14:07:29.584Z,50.41
2023-04-26T14:09:57.489Z,50.25
2023-04-26T14:12:25.938Z,50.12
2023-04-26T14:14:54.151Z,50.18
2023-04-26T14:17:22.000Z,50.04
2023-04-26T14:19:50.878Z,49.75
2023-04-26T14:22:19.971Z,48.45
2023-04-26T14:24:48.039Z,47.75
2023-04-26T14:27:16.139Z,46.36
2023-04-26T14:29:44.101Z,45.42
2023-04-26T14:32:13.034Z,45.97
2023-04-26T14:34:41.206Z,46.89
2023-04-26T14:37:10.713Z,47.00
2023-04-26T14:39:38.556Z,47.47
2023-04-26T14:42:07.248Z,47.41
2023-04-26T14:44:35.950Z,47.39
2023-04-26T14:47:03.733Z,47.73
2023-04-26T14:49:31.861Z,46.97
2023-04-26T14:51:59.742Z,45.88
2023-04-26T14:54:27.649Z,45.03
2023-04-26T14:56:56.119Z,45.11
2023-04-26T14:59:24.411Z,45.57
2023-04-26T15:01:53.610Z,45.58
2023-04-26T15:04:21.939Z,46.62
2023-04-26T15:06:49.922Z,46.99
2023-04-26T15:09:18.053Z,47.43
2023-04-26T15:11:46.181Z,47.58
2023-04-26T15:14:14.573Z,47.85
2023-04-26T15:16:42.549Z,47.37
2023-04-26T15:19:10.809Z,47.71
2023-04-26T15:21:39.225Z,47.14
2023-04-26T15:24:07.888Z,46.42
2023-04-26T15:26:35.887Z,46.74
2023-04-26T15:29:03.967Z,47.61
2023-04-26T15:31:31.911Z,48.49
2023-04-26T15:34:00.336Z,48.46
2023-04-26T15:36:28.493Z,48.39
2023-04-26T15:38:56.457Z,48.93
2023-04-26T15:41:24.789Z,48.71
2023-04-26T15:43:52.578Z,48.26
2023-04-26T15:46:20.928Z,47.75
2023-04-26T15:48:48.869Z,47.64
2023-04-26T15:51:17.085Z,46.83
2023-04-26T15:53:44.940Z,46.33
2023-04-26T15:56:12.876Z,46.06
2023-04-26T15:58:42.286Z,45.73
2023-04-26T16:01:10.310Z,45.19
2023-04-26T16:03:39.361Z,46.10
2023-04-26T16:06:08.236Z,46.12
2023-04-26T16:08:40.469Z,47.04
2023-04-26T16:11:09.405Z,47.51
2023-04-26T16:13:37.640Z,47.71
2023-04-26T16:16:05.808Z,47.82
2023-04-26T16:18:34.448Z,47.65
2023-04-26T16:21:02.284Z,47.88
2023-04-26T16:23:31.056Z,48.13
2023-04-26T16:25:59.179Z,48.19
2023-04-26T16:28:27.398Z,47.72
2023-04-26T16:30:55.334Z,48.12
2023-04-26T16:33:23.851Z,48.47
2023-04-26T16:35:53.216Z,48.53
2023-04-26T16:38:21.105Z,48.78
2023-04-26T16:40:49.101Z,48.54
2023-04-26T16:43:17.108Z,49.46
2023-04-26T16:45:45.289Z,49.45
2023-04-26T16:48:14.036Z,49.80
2023-04-26T16:50:41.926Z,49.76
2023-04-26T16:53:09.911Z,49.68
2023-04-26T16:55:37.760Z,50.03
2023-04-26T16:58:05.636Z,49.77
2023-04-26T17:00:34.154Z,49.98
2023-04-26T17:03:02.217Z,50.75
2023-04-26T17:05:30.404Z,50.57
2023-04-26T17:07:58.495Z,50.35
2023-04-26T17:10:26.421Z,50.79
2023-04-26T17:12:54.783Z,50.54
2023-04-26T17:15:22.608Z,50.52
2023-04-26T17:17:50.985Z,50.92
2023-04-26T17:20:18.905Z,50.45
2023-04-26T17:22:46.778Z,50.81
2023-04-26T17:25:14.637Z,51.08
2023-04-26T17:27:42.451Z,51.08
2023-04-26T17:30:11.804Z,51.27
2023-04-26T17:32:39.807Z,51.13
2023-04-26T17:35:07.925Z,51.14
2023-04-26T17:37:36.068Z,51.22
2023-04-26T17:40:06.387Z,51.24
2023-04-26T17:42:34.427Z,51.56
2023-04-26T17:45:02.789Z,51.61
2023-04-26T17:47:31.439Z,52.11
2023-04-26T17:49:59.624Z,52.03
2023-04-26T17:52:28.141Z,52.13
2023-04-26T17:54:56.395Z,52.27
2023-04-26T17:57:24.408Z,52.00
2023-04-26T17:59:53.032Z,52.70
2023-04-26T18:02:21.495Z,52.52
2023-04-26T18:04:49.556Z,52.33
2023-04-26T18:07:17.530Z,52.72
2023-04-26T18:09:45.408Z,52.87
2023-04-26T18:12:13.319Z,53.48
2023-04-26T18:14:45.424Z,52.98
2023-04-26T18:17:13.712Z,53.06
2023-04-26T18:19:41.685Z,53.25
2023-04-26T18:22:09.460Z,53.53
2023-04-26T18:24:37.455Z,53.60
2023-04-26T18:27:06.853Z,53.64
2023-04-26T18:29:35.089Z,53.83
2023-04-26T18:32:03.838Z,54.68
2023-04-26T18:34:31.708Z,54.48
2023-04-26T18:36:59.880Z,54.42
2023-04-26T18:39:28.127Z,54.15
2023-04-26T18:41:55.941Z,54.55
2023-04-26T18:44:24.103Z,54.61
2023-04-26T18:46:55.975Z,54.61
2023-04-26T18:49:23.890Z,55.08
2023-04-26T18:51:52.075Z,54.81
2023-04-26T18:54:20.030Z,54.84
2023-04-26T18:56:48.253Z,55.11
2023-04-26T18:59:16.858Z,55.27
2023-04-26T19:01:44.849Z,55.00
2023-04-26T19:04:13.478Z,55.69
2023-04-26T19:06:41.455Z,55.06
2023-04-26T19:09:12.031Z,55.39
2023-04-26T19:11:40.488Z,55.78
2023-04-26T19:14:08.322Z,55.39
2023-04-26T19:16:36.962Z,55.66
2023-04-26T19:19:05.889Z,55.71
2023-04-26T19:21:34.220Z,55.63
2023-04-26T19:24:02.181Z,55.91
2023-04-26T19:26:30.052Z,55.93
2023-04-26T19:28:58.561Z,56.08
2023-04-26T19:31:26.747Z,55.90
2023-04-26T19:33:54.595Z,55.85
2023-04-26T19:36:22.395Z,55.96
2023-04-26T19:38:50.350Z,56.08
2023-04-26T19:41:18.972Z,56.08
2023-04-26T19:43:46.823Z,56.41
2023-04-26T19:46:14.845Z,56.19
2023-04-26T19:48:42.634Z,56.17
2023-04-26T19:51:10.900Z,56.18
2023-04-26T19:53:38.920Z,56.04
2023-04-26T19:56:06.790Z,56.71
2023-04-26T19:58:34.584Z,56.21
2023-04-26T20:01:02.650Z,56.59
2023-04-26T20:03:31.055Z,56.42
2023-04-26T20:05:59.536Z,56.75
2023-04-26T20:08:28.701Z,56.61
2023-04-26T20:10:57.050Z,56.73
2023-04-26T20:13:25.327Z,56.78
2023-04-26T20:15:53.389Z,56.60
2023-04-26T20:18:22.053Z,57.01
2023-04-26T20:20:51.626Z,57.28
2023-04-26T20:23:19.506Z,56.74
2023-04-26T20:25:47.662Z,57.02
2023-04-26T20:28:15.556Z,56.98
2023-04-26T20:30:43.721Z,56.87
2023-04-26T20:33:11.593Z,57.22
2023-04-26T20:35:39.444Z,57.36
2023-04-26T20:38:07.675Z,56.76
2023-04-26T20:40:35.493Z,56.92
2023-04-26T20:43:03.629Z,57.30
2023-04-26T20:45:31.513Z,57.66
2023-04-26T20:48:00.332Z,57.13
2023-04-26T20:50:28.191Z,57.22
2023-04-26T20:52:56.021Z,57.38
2023-04-26T20:55:24.314Z,57.37
2023-04-26T20:57:52.189Z,57.23
2023-04-26T21:00:20.459Z,57.62
2023-04-26T21:02:48.378Z,57.45
2023-04-26T21:05:16.465Z,57.70
2023-04-26T21:07:44.886Z,57.07
2023-04-26T21:10:13.050Z,57.61
2023-04-26T21:12:41.914Z,58.09
2023-04-26T21:15:09.864Z,58.12
2023-04-26T21:17:37.675Z,57.69
2023-04-26T21:20:06.317Z,57.89
2023-04-26T21:22:34.369Z,57.77
2023-04-26T21:25:02.258Z,57.98
2023-04-26T21:27:30.756Z,57.88
2023-04-26T21:29:58.620Z,58.00
2023-04-26T21:32:27.342Z,57.57
2023-04-26T21:34:55.202Z,57.94
2023-04-26T21:37:23.476Z,58.29
2023-04-26T21:39:51.136Z,58.29
2023-04-26T21:42:18.919Z,58.15
2023-04-26T21:44:47.536Z,58.12
2023-04-26T21:47:15.316Z,58.10
2023-04-26T21:49:43.185Z,58.27
2023-04-26T21:52:11.024Z,59.14
2023-04-26T21:54:39.083Z,58.43
2023-04-26T21:57:07.477Z,59.10
2023-04-26T21:59:35.576Z,59.18
2023-04-26T22:02:03.659Z,59.38
2023-04-26T22:04:32.059Z,59.36
2023-04-26T22:06:59.885Z,59.42
2023-04-26T22:09:27.894Z,59.57
2023-04-26T22:11:55.575Z,59.59
2023-04-26T22:14:23.246Z,59.61
2023-04-26T22:16:51.354Z,59.70
2023-04-26T22:19:19.146Z,59.21
2023-04-26T22:21:47.242Z,59.62
2023-04-26T22:24:14.891Z,59.42
2023-04-26T22:26:42.682Z,59.57
2023-04-26T22:29:10.603Z,59.83
2023-04-26T22:31:38.540Z,60.03
2023-04-26T22:34:06.561Z,59.68
2023-04-26T22:36:34.183Z,59.63
2023-04-26T22:39:02.894Z,60.07
2023-04-26T22:41:30.684Z,60.08
2023-04-26T22:43:58.497Z,60.04
2023-04-26T22:46:26.538Z,60.17
2023-04-26T22:48:54.228Z,60.15
2023-04-26T22:51:22.019Z,60.15
2023-04-26T22:53:49.621Z,60.20
2023-04-26T22:56:17.280Z,60.13
2023-04-26T22:58:45.073Z,60.71
2023-04-26T23:01:13.056Z,60.69
2023-04-26T23:03:41.549Z,60.27
2023-04-26T23:06:09.353Z,60.36
2023-04-26T23:08:36.933Z,60.34
2023-04-26T23:11:06.298Z,60.32
2023-04-26T23:13:33.955Z,60.16
2023-04-26T23:16:01.688Z,60.57
2023-04-26T23:18:29.347Z,61.03
2023-04-26T23:20:57.132Z,60.48
2023-04-26T23:23:24.955Z,60.72
2023-04-26T23:25:52.534Z,60.81
2023-04-26T23:28:20.500Z,61.07
2023-04-26T23:30:48.127Z,60.59
2023-04-26T23:33:16.289Z,60.83
2023-04-26T23:35:44.307Z,61.01
2023-04-26T23:38:11.908Z,60.79
2023-04-26T23:40:39.665Z,61.21
2023-04-26T23:43:07.432Z,61.71
2023-04-26T23:45:35.421Z,61.35
2023-04-26T23:48:03.501Z,61.95
2023-04-26T23:50:31.168Z,61.62
2023-04-26T23:52:58.833Z,61.82
2023-04-26T23:55:26.434Z,61.97
2023-04-26T23:57:54.150Z,62.39
